Time;durP1;ratioP1;P1;durP2;ratioP2;P2;SDS_P1;SDS_P2;PMS_P1;PMS_P2;Temp;Humidity;BMP_temperature;BMP_pressure;BME280_temperature;BME280_humidity;BME280_pressure;Samples;Min_cycle;Max_cycle;Signal;HPM_P1;HPM_P2
2022/06/20 00:01:09;;;;;;;3.70;1.10;;;15.20;99.00;;;;;;4950000;28;20035;-34
2022/06/20 00:03:41;;;;;;;5.38;0.93;;;15.20;99.10;;;;;;4949725;28;20035;-34
2022/06/20 00:06:12;;;;;;;3.15;0.88;;;15.10;99.10;;;;;;4950599;28;20027;-35
2022/06/20 00:08:38;;;;;;;2.88;0.98;;;15.10;99.20;;;;;;4949269;28;20331;-36
2022/06/20 00:11:04;;;;;;;5.07;1.30;;;15.00;99.20;;;;;;4950210;28;20356;-36
2022/06/20 00:13:33;;;;;;;3.92;1.00;;;15.00;99.20;;;;;;4949294;29;20074;-35
2022/06/20 00:16:00;;;;;;;3.38;0.95;;;15.00;99.40;;;;;;4949375;28;20505;-35
2022/06/20 00:18:26;;;;;;;3.15;1.00;;;14.90;99.40;;;;;;4949340;28;20154;-35
2022/06/20 00:20:52;;;;;;;4.72;1.38;;;14.90;99.50;;;;;;4948877;28;20019;-35
2022/06/20 00:23:20;;;;;;;4.50;1.10;;;14.90;99.50;;;;;;4947305;29;20023;-35
2022/06/20 00:25:46;;;;;;;3.13;0.90;;;14.80;99.60;;;;;;4948126;29;20090;-37
2022/06/20 00:28:13;;;;;;;3.35;1.35;;;14.80;99.50;;;;;;4948727;29;20027;-35
2022/06/20 00:30:40;;;;;;;4.22;0.95;;;14.80;99.60;;;;;;4948067;28;20891;-35
2022/06/20 00:33:06;;;;;;;2.90;0.93;;;14.80;99.70;;;;;;4949948;28;20472;-35
2022/06/20 00:35:36;;;;;;;4.20;1.27;;;14.80;99.70;;;;;;4947537;29;20617;-35
2022/06/20 00:38:03;;;;;;;4.20;0.90;;;14.80;99.70;;;;;;4930665;29;20455;-34
2022/06/20 00:40:45;;;;;;;3.85;1.20;;;14.80;99.70;;;;;;4943807;29;20039;-35
2022/06/20 00:43:17;;;;;;;2.45;1.20;;;14.80;99.70;;;;;;4948992;28;20501;-35
2022/06/20 00:45:45;;;;;;;2.58;1.08;;;14.70;99.70;;;;;;4949195;28;20031;-35
2022/06/20 00:48:26;;;;;;;4.10;1.30;;;14.70;99.70;;;;;;4948758;28;20134;-34
2022/06/20 00:50:59;;;;;;;2.22;0.95;;;14.70;99.80;;;;;;4949064;28;20538;-34
2022/06/20 00:53:41;;;;;;;4.05;1.00;;;14.70;99.90;;;;;;4948849;28;20023;-35
2022/06/20 00:56:17;;;;;;;6.38;1.33;;;14.70;99.90;;;;;;4948997;29;20432;-36
2022/06/20 00:58:52;;;;;;;5.13;1.00;;;14.70;99.90;;;;;;4947883;28;20043;-34
2022/06/20 01:01:25;;;;;;;3.30;1.00;;;14.70;99.90;;;;;;4948730;29;20061;-36
2022/06/20 01:03:55;;;;;;;2.65;1.20;;;14.70;99.90;;;;;;4928621;29;20031;-35
2022/06/20 01:06:30;;;;;;;2.13;1.02;;;14.80;99.90;;;;;;4943447;28;20027;-34
2022/06/20 01:09:05;;;;;;;4.60;1.25;;;14.80;99.90;;;;;;4949057;28;20042;-36
2022/06/20 01:11:50;;;;;;;3.92;1.30;;;14.80;99.90;;;;;;4947848;29;20102;-35
2022/06/20 01:14:42;;;;;;;3.72;0.93;;;14.70;99.90;;;;;;4929334;29;20591;-34
2022/06/20 01:17:32;;;;;;;2.33;1.00;;;14.70;99.90;;;;;;4946573;29;20561;-33
2022/06/20 01:20:07;;;;;;;3.10;1.00;;;14.70;99.90;;;;;;4948229;28;20031;-35
2022/06/20 01:23:04;;;;;;;5.25;1.13;;;14.60;99.90;;;;;;4948404;29;20442;-35
2022/06/20 01:25:44;;;;;;;4.78;1.23;;;14.60;99.90;;;;;;4947071;28;20225;-34
2022/06/20 01:28:14;;;;;;;2.75;0.98;;;14.60;99.90;;;;;;4948430;28;20089;-34
2022/06/20 01:30:43;;;;;;;3.47;1.00;;;14.60;99.90;;;;;;4946974;28;20035;-35
2022/06/20 01:33:11;;;;;;;3.42;0.95;;;14.60;99.90;;;;;;4943989;29;20061;-36
2022/06/20 01:38:23;;;;;;;3.00;1.25;;;14.60;99.90;;;;;;4947322;29;20030;-34
2022/06/20 01:43:35;;;;;;;3.15;0.77;;;14.60;99.90;;;;;;4947818;29;20313;-36
2022/06/20 01:46:09;;;;;;;3.17;1.10;;;14.60;99.90;;;;;;4947256;29;20423;-34
2022/06/20 01:48:36;;;;;;;3.22;0.98;;;14.50;99.90;;;;;;4947292;28;20121;-34
2022/06/20 01:51:05;;;;;;;5.20;1.10;;;14.60;99.90;;;;;;4948932;29;20050;-36
2022/06/20 01:53:32;;;;;;;3.38;1.10;;;14.60;99.90;;;;;;4946457;29;20031;-36
2022/06/20 01:55:59;;;;;;;3.42;1.00;;;14.60;99.90;;;;;;4948400;28;20419;-35
2022/06/20 01:58:54;;;;;;;3.08;0.90;;;14.60;99.90;;;;;;4946630;29;20044;-35
2022/06/20 02:01:19;;;;;;;4.70;1.30;;;14.60;99.90;;;;;;4946208;28;20043;-35
2022/06/20 02:03:47;;;;;;;4.15;1.20;;;14.70;99.90;;;;;;4947394;29;20483;-36
2022/06/20 02:06:16;;;;;;;2.85;0.82;;;14.60;99.90;;;;;;4948108;28;20106;-35
2022/06/20 02:08:45;;;;;;;2.05;0.98;;;14.60;99.90;;;;;;4947301;28;20023;-35
2022/06/20 02:11:20;;;;;;;3.00;1.08;;;14.60;99.90;;;;;;4948258;29;20023;-34
2022/06/20 02:13:50;;;;;;;2.83;1.10;;;14.60;99.90;;;;;;4946859;29;20467;-35
2022/06/20 02:16:18;;;;;;;2.75;1.33;;;14.60;99.90;;;;;;4947146;28;20050;-34
2022/06/20 02:18:47;;;;;;;2.88;1.20;;;14.60;99.90;;;;;;4947321;29;20071;-35
2022/06/20 02:21:23;;;;;;;3.35;1.10;;;14.60;99.90;;;;;;4946715;28;20039;-35
2022/06/20 02:23:56;;;;;;;3.28;1.02;;;14.60;99.90;;;;;;4948109;28;20066;-34
2022/06/20 02:26:22;;;;;;;5.80;1.30;;;14.60;99.90;;;;;;4947389;28;20034;-35
2022/06/20 02:29:08;;;;;;;4.68;1.20;;;14.60;99.90;;;;;;4946952;29;20113;-35
2022/06/20 02:31:33;;;;;;;7.05;1.83;;;14.60;99.90;;;;;;4947661;29;20035;-35
2022/06/20 02:34:00;;;;;;;3.15;1.40;;;14.70;99.90;;;;;;4947712;29;20039;-35
2022/06/20 02:36:26;;;;;;;3.40;1.10;;;14.70;99.90;;;;;;4946393;28;20063;-35
2022/06/20 02:38:52;;;;;;;3.92;1.30;;;14.70;99.90;;;;;;4946482;28;20094;-34
2022/06/20 02:41:22;;;;;;;2.25;0.95;;;14.70;99.90;;;;;;4946367;28;20043;-35
2022/06/20 02:44:04;;;;;;;4.63;1.10;;;14.80;99.90;;;;;;4945556;28;20027;-35
2022/06/20 02:46:31;;;;;;;5.07;1.07;;;14.80;99.90;;;;;;4946199;28;20093;-35
2022/06/20 02:48:59;;;;;;;3.38;1.17;;;14.80;99.90;;;;;;4946817;28;20482;-34
2022/06/20 02:51:30;;;;;;;3.83;1.10;;;14.80;99.90;;;;;;4946157;28;20040;-35
2022/06/20 02:53:59;;;;;;;3.75;1.25;;;14.80;99.90;;;;;;4947264;29;20023;-36
2022/06/20 02:56:28;;;;;;;4.22;1.17;;;14.80;99.90;;;;;;4946339;28;20450;-36
2022/06/20 02:59:02;;;;;;;1.75;0.82;;;14.80;99.90;;;;;;4947502;28;20043;-35
2022/06/20 03:01:30;;;;;;;3.55;1.00;;;14.80;99.90;;;;;;4946645;29;20490;-35
2022/06/20 03:03:58;;;;;;;2.67;1.00;;;14.80;99.90;;;;;;4947138;29;20026;-34
2022/06/20 03:06:31;;;;;;;2.75;0.98;;;14.70;99.90;;;;;;4947007;28;20131;-33
2022/06/20 03:08:57;;;;;;;2.25;1.00;;;14.70;99.90;;;;;;4947702;29;20427;-34
2022/06/20 03:11:26;;;;;;;4.35;0.95;;;14.70;99.90;;;;;;4943419;29;20023;-35
2022/06/20 03:13:53;;;;;;;3.72;1.23;;;14.60;99.90;;;;;;4947504;28;20047;-35
2022/06/20 03:16:21;;;;;;;4.03;1.20;;;14.60;99.90;;;;;;4947009;28;20102;-35
2022/06/20 03:18:49;;;;;;;2.03;0.90;;;14.50;99.90;;;;;;4947423;28;20132;-33
2022/06/20 03:21:19;;;;;;;3.85;0.95;;;14.50;99.90;;;;;;4946839;28;20027;-36
2022/06/20 03:23:45;;;;;;;4.60;1.20;;;14.40;99.90;;;;;;4947001;29;20035;-35
2022/06/20 03:26:18;;;;;;;2.60;0.80;;;14.30;99.90;;;;;;4946902;29;20070;-35
2022/06/20 03:28:44;;;;;;;3.75;1.40;;;14.30;99.90;;;;;;4931537;29;20559;-36
2022/06/20 03:31:10;;;;;;;3.75;1.10;;;14.20;99.90;;;;;;4945292;29;20027;-35
2022/06/20 03:33:36;;;;;;;5.38;1.38;;;14.20;99.90;;;;;;4949715;28;20027;-35
2022/06/20 03:36:10;;;;;;;3.95;1.20;;;14.10;99.90;;;;;;4951046;29;20063;-34
2022/06/20 03:38:37;;;;;;;3.00;1.20;;;14.10;99.90;;;;;;4949424;28;20121;-35
2022/06/20 03:41:05;;;;;;;2.45;1.00;;;14.10;99.90;;;;;;4950382;28;20051;-35
2022/06/20 03:43:32;;;;;;;3.30;1.20;;;14.00;99.90;;;;;;4949877;28;20127;-32
2022/06/20 03:46:27;;;;;;;3.13;1.08;;;14.00;99.90;;;;;;4949551;29;20031;-34
2022/06/20 03:49:25;;;;;;;2.55;1.15;;;13.90;99.90;;;;;;4949114;28;20112;-35
2022/06/20 03:52:20;;;;;;;3.83;1.10;;;13.90;99.90;;;;;;4943978;29;20050;-34
2022/06/20 03:55:10;;;;;;;4.15;1.30;;;14.00;99.90;;;;;;4929557;29;20051;-36
2022/06/20 03:57:53;;;;;;;3.55;1.00;;;14.00;99.90;;;;;;4947949;29;20495;-34
2022/06/20 04:00:27;;;;;;;4.40;1.20;;;14.00;99.90;;;;;;4949813;28;20031;-35
2022/06/20 04:03:04;;;;;;;3.28;1.05;;;14.00;99.90;;;;;;4949916;28;20391;-35
2022/06/20 04:05:54;;;;;;;5.18;1.05;;;13.90;99.90;;;;;;4949718;29;20115;-36
2022/06/20 04:10:57;;;;;;;3.58;1.27;;;13.90;99.90;;;;;;4949035;28;20030;-35
2022/06/20 04:11:18;;;;;;;3.95;1.00;;;13.90;99.90;;;;;;4948995;28;20390;-35
2022/06/20 04:13:52;;;;;;;6.00;2.05;;;13.90;99.90;;;;;;4949314;29;20425;-34
2022/06/20 04:16:34;;;;;;;4.30;1.30;;;14.00;99.90;;;;;;4948706;29;20036;-35
2022/06/20 04:19:22;;;;;;;2.83;1.38;;;14.00;99.90;;;;;;4949801;28;20023;-35
2022/06/20 04:22:04;;;;;;;4.75;1.30;;;14.10;99.90;;;;;;4949141;29;20530;-34
2022/06/20 04:24:39;;;;;;;4.90;1.30;;;14.10;99.90;;;;;;4945063;29;20803;-35
2022/06/20 04:27:11;;;;;;;3.42;1.50;;;14.10;99.90;;;;;;4949887;29;20073;-35
2022/06/20 04:29:55;;;;;;;3.60;1.13;;;14.20;99.90;;;;;;4948076;28;20446;-34
2022/06/20 04:32:37;;;;;;;3.72;1.20;;;14.20;99.90;;;;;;4949376;28;20033;-36
2022/06/20 04:35:13;;;;;;;4.97;1.15;;;14.30;99.90;;;;;;4948729;28;20039;-36
2022/06/20 04:38:05;;;;;;;4.15;1.50;;;14.30;99.90;;;;;;4948658;29;20027;-35
2022/06/20 04:40:47;;;;;;;4.38;1.27;;;14.30;99.90;;;;;;4948537;28;20085;-36
2022/06/20 04:43:31;;;;;;;2.15;1.00;;;14.30;99.90;;;;;;4948444;28;20027;-35
2022/06/20 04:46:13;;;;;;;1.65;0.95;;;14.40;99.90;;;;;;4949345;28;20077;-36
2022/06/20 04:48:38;;;;;;;3.00;1.50;;;14.30;99.90;;;;;;4948717;29;20030;-35
2022/06/20 04:51:12;;;;;;;3.45;1.10;;;14.40;99.90;;;;;;4949555;29;20039;-35
2022/06/20 04:53:41;;;;;;;4.35;1.65;;;14.30;99.90;;;;;;4948440;29;20015;-36
2022/06/20 04:56:11;;;;;;;3.15;1.70;;;14.30;99.90;;;;;;4948081;28;20110;-34
2022/06/20 04:58:49;;;;;;;4.47;1.20;;;14.20;99.90;;;;;;4947764;28;20062;-33
2022/06/20 05:01:16;;;;;;;3.35;1.67;;;14.20;99.90;;;;;;4948232;28;20386;-36
2022/06/20 05:03:46;;;;;;;4.72;1.42;;;14.30;99.90;;;;;;4947198;29;20103;-35
2022/06/20 05:06:23;;;;;;;6.80;1.70;;;14.30;99.90;;;;;;4948374;28;20443;-36
2022/06/20 05:08:54;;;;;;;4.70;1.60;;;14.40;99.90;;;;;;4948496;29;20020;-34
2022/06/20 05:11:35;;;;;;;5.30;1.50;;;14.50;99.90;;;;;;4947976;28;20138;-36
2022/06/20 05:14:14;;;;;;;4.72;1.42;;;14.60;99.90;;;;;;4948923;28;20125;-34
2022/06/20 05:16:47;;;;;;;6.93;2.58;;;14.70;99.90;;;;;;4948884;28;20085;-36
2022/06/20 05:19:24;;;;;;;6.20;1.60;;;14.80;99.90;;;;;;4947692;28;20118;-35
2022/06/20 05:21:55;;;;;;;3.80;1.25;;;14.90;99.90;;;;;;4948714;28;20027;-36
2022/06/20 05:24:24;;;;;;;5.05;1.48;;;14.90;99.90;;;;;;4947421;29;20054;-35
2022/06/20 05:26:52;;;;;;;2.13;1.00;;;15.00;99.90;;;;;;4948587;28;20035;-35
2022/06/20 05:29:27;;;;;;;3.65;2.30;;;15.10;99.90;;;;;;4948101;29;20039;-35
2022/06/20 05:31:55;;;;;;;3.15;1.13;;;15.10;99.90;;;;;;4948109;28;20027;-34
2022/06/20 05:34:33;;;;;;;3.78;1.58;;;15.20;99.90;;;;;;4947824;29;20035;-34
2022/06/20 05:37:22;;;;;;;3.47;1.60;;;15.20;99.90;;;;;;4948353;28;20902;-34
2022/06/20 05:39:54;;;;;;;4.18;1.35;;;15.20;99.90;;;;;;4947025;28;20031;-34
2022/06/20 05:42:20;;;;;;;3.17;1.42;;;15.30;99.90;;;;;;4947988;28;20035;-36
2022/06/20 05:44:46;;;;;;;4.05;1.33;;;15.30;99.90;;;;;;4947843;29;20031;-35
2022/06/20 05:47:34;;;;;;;3.40;1.35;;;15.40;99.90;;;;;;4947705;29;20059;-35
2022/06/20 05:50:05;;;;;;;3.17;1.40;;;15.30;99.90;;;;;;4947195;28;20438;-36
2022/06/20 05:52:32;;;;;;;2.17;1.10;;;15.40;99.90;;;;;;4940559;29;20038;-35
2022/06/20 05:55:05;;;;;;;3.22;1.23;;;15.40;99.90;;;;;;4945449;28;20396;-33
2022/06/20 05:57:33;;;;;;;5.40;1.67;;;15.40;99.90;;;;;;4945669;29;20047;-35
2022/06/20 06:00:07;;;;;;;4.10;1.98;;;15.40;99.90;;;;;;4946011;28;20268;-35
2022/06/20 06:02:39;;;;;;;3.05;1.50;;;15.40;99.90;;;;;;4936211;29;20055;-35
2022/06/20 06:05:19;;;;;;;4.63;1.90;;;15.40;99.90;;;;;;4946189;28;20015;-34
2022/06/20 06:08:06;;;;;;;4.53;1.75;;;15.30;99.90;;;;;;4945589;29;20471;-35
2022/06/20 06:10:42;;;;;;;2.75;1.27;;;15.40;99.90;;;;;;4945609;29;20038;-34
2022/06/20 06:13:11;;;;;;;3.28;1.50;;;15.40;99.90;;;;;;4945815;28;20115;-35
2022/06/20 06:16:46;;;;;;;2.83;1.30;;;15.50;99.90;;;;;;4945667;28;20538;-35
2022/06/20 06:18:31;;;;;;;3.53;1.40;;;15.50;99.90;;;;;;4946479;29;20039;-35
2022/06/20 06:20:56;;;;;;;3.97;1.10;;;15.70;99.90;;;;;;4945943;28;20041;-35
2022/06/20 06:23:22;;;;;;;2.80;1.58;;;15.80;99.90;;;;;;4946801;29;20027;-35
2022/06/20 06:25:47;;;;;;;4.10;1.95;;;15.90;99.90;;;;;;4946530;29;20031;-34
2022/06/20 06:28:17;;;;;;;3.25;1.52;;;16.00;99.90;;;;;;4945657;29;20039;-35
2022/06/20 06:30:49;;;;;;;4.47;2.15;;;16.00;99.90;;;;;;4946370;28;20059;-35
2022/06/20 06:33:27;;;;;;;3.45;1.80;;;16.00;99.90;;;;;;4946933;29;20035;-34
2022/06/20 06:36:09;;;;;;;4.03;1.45;;;16.00;99.90;;;;;;4946544;28;20047;-34
2022/06/20 06:38:48;;;;;;;3.72;1.63;;;16.00;99.90;;;;;;4947284;29;20023;-36
2022/06/20 06:41:22;;;;;;;5.65;2.10;;;16.00;99.90;;;;;;4946480;28;20031;-34
2022/06/20 06:43:51;;;;;;;4.63;1.80;;;16.00;99.90;;;;;;4947046;29;20027;-34
2022/06/20 06:46:33;;;;;;;7.03;2.70;;;16.00;99.90;;;;;;4947586;28;20035;-35
2022/06/20 06:49:19;;;;;;;4.75;2.00;;;16.00;99.90;;;;;;4946391;28;20390;-36
2022/06/20 06:51:54;;;;;;;5.57;2.65;;;15.90;99.90;;;;;;4951914;28;20530;-35
2022/06/20 06:54:26;;;;;;;4.25;2.35;;;15.90;99.90;;;;;;4955226;28;20039;-36
2022/06/20 06:56:59;;;;;;;3.90;1.77;;;16.00;99.90;;;;;;4946864;28;20035;-34
2022/06/20 06:59:34;;;;;;;4.38;2.50;;;16.10;99.90;;;;;;4936206;29;20031;-34
2022/06/20 07:02:02;;;;;;;6.13;2.47;;;16.20;99.90;;;;;;4948847;28;20047;-35
2022/06/20 07:04:59;;;;;;;4.80;2.35;;;16.20;99.90;;;;;;4950001;28;20101;-37
2022/06/20 07:07:39;;;;;;;7.57;2.90;;;16.20;99.90;;;;;;4950047;28;20427;-37
2022/06/20 07:10:07;;;;;;;5.47;2.58;;;16.20;99.90;;;;;;4950446;29;20822;-35
2022/06/20 07:12:49;;;;;;;4.57;2.08;;;16.20;99.90;;;;;;4950635;28;20030;-36
2022/06/20 07:15:19;;;;;;;6.00;2.47;;;16.30;99.90;;;;;;4950007;28;20562;-35
2022/06/20 07:17:55;;;;;;;8.75;2.42;;;16.30;99.90;;;;;;4948848;28;20426;-35
2022/06/20 07:20:26;;;;;;;4.03;2.03;;;16.30;99.90;;;;;;4949534;29;20035;-35
2022/06/20 07:22:52;;;;;;;6.32;2.42;;;16.40;99.90;;;;;;4950584;28;20098;-36
2022/06/20 07:25:27;;;;;;;3.80;2.30;;;16.40;99.80;;;;;;4949529;29;20019;-35
2022/06/20 07:28:00;;;;;;;6.53;2.50;;;16.60;99.80;;;;;;4950608;28;20039;-35
2022/06/20 07:30:37;;;;;;;5.80;2.35;;;16.70;98.10;;;;;;4938933;29;20483;-36
2022/06/20 07:33:10;;;;;;;6.45;2.28;;;16.80;97.60;;;;;;4951410;28;20320;-34
2022/06/20 07:35:40;;;;;;;4.18;2.28;;;16.80;98.20;;;;;;4950527;28;20031;-35
2022/06/20 07:38:09;;;;;;;7.63;2.38;;;16.80;97.60;;;;;;4949838;28;20023;-34
2022/06/20 07:40:42;;;;;;;5.45;2.22;;;16.80;96.90;;;;;;4949833;28;20418;-35
2022/06/20 07:43:43;;;;;;;6.07;2.42;;;16.60;97.30;;;;;;4949836;28;20098;-35
2022/06/20 07:46:22;;;;;;;5.05;2.42;;;16.60;97.50;;;;;;4940901;29;20488;-37
2022/06/20 07:48:52;;;;;;;5.10;2.30;;;16.60;96.70;;;;;;4950260;28;20177;-36
2022/06/20 07:51:26;;;;;;;4.43;2.15;;;16.60;96.80;;;;;;4949468;28;20023;-35
2022/06/20 07:54:29;;;;;;;4.88;2.50;;;16.60;96.90;;;;;;4949776;28;20040;-36
2022/06/20 07:57:17;;;;;;;4.65;2.05;;;16.70;96.20;;;;;;4949013;28;20051;-34
2022/06/20 08:00:09;;;;;;;4.95;2.30;;;16.80;96.50;;;;;;4951549;28;20038;-36
2022/06/20 08:02:41;;;;;;;4.07;2.10;;;16.90;96.40;;;;;;4949474;28;20877;-34
2022/06/20 08:05:10;;;;;;;8.63;2.95;;;16.90;96.30;;;;;;4950118;28;20081;-35
2022/06/20 08:07:54;;;;;;;5.43;2.65;;;17.00;94.70;;;;;;4948670;29;20114;-36
2022/06/20 08:10:52;;;;;;;5.15;2.58;;;17.10;94.90;;;;;;4949805;28;20555;-35
2022/06/20 08:13:31;;;;;;;5.95;3.60;;;17.20;93.60;;;;;;4936265;28;20043;-36
2022/06/20 08:16:09;;;;;;;6.35;2.20;;;17.10;93.30;;;;;;4956185;28;20554;-37
2022/06/20 08:18:34;;;;;;;4.53;2.10;;;17.10;93.40;;;;;;4957674;28;20034;-36
2022/06/20 08:21:11;;;;;;;6.40;1.95;;;17.10;93.40;;;;;;4956186;28;20027;-36
2022/06/20 08:23:42;;;;;;;4.57;1.70;;;17.20;93.20;;;;;;4951096;28;20019;-35
2022/06/20 08:26:12;;;;;;;5.17;1.90;;;17.30;93.00;;;;;;4949165;28;20427;-35
2022/06/20 08:28:50;;;;;;;4.82;2.17;;;17.50;93.00;;;;;;4948703;28;20631;-35
2022/06/20 08:31:32;;;;;;;4.28;2.20;;;17.80;91.90;;;;;;4947870;28;20073;-36
2022/06/20 08:34:04;;;;;;;4.68;2.13;;;18.00;91.50;;;;;;4929664;29;20077;-37
2022/06/20 08:36:39;;;;;;;;;;;18.10;91.10;;;;;;4945984;29;20027;-35
2022/06/20 08:39:29;;;;;;;7.28;2.63;;;18.10;91.10;;;;;;4945980;28;19910;-36
2022/06/20 08:42:31;;;;;;;4.55;2.20;;;18.00;91.00;;;;;;4958440;28;20098;-37
2022/06/20 08:45:14;;;;;;;5.50;2.17;;;17.80;91.00;;;;;;4951238;28;20031;-37
2022/06/20 08:48:08;;;;;;;5.78;2.08;;;17.70;90.90;;;;;;4957093;28;20487;-35
2022/06/20 08:51:08;;;;;;;5.53;2.42;;;17.70;91.00;;;;;;4957096;28;20019;-39
2022/06/20 08:53:56;;;;;;;6.43;2.25;;;17.70;91.30;;;;;;4917088;28;20042;-35
2022/06/20 08:56:42;;;;;;;4.82;2.30;;;17.80;91.50;;;;;;4954804;28;20612;-34
2022/06/20 08:59:38;;;;;;;6.68;2.45;;;17.90;91.90;;;;;;4956519;28;20098;-35
2022/06/20 09:02:19;;;;;;;5.25;2.10;;;17.80;92.00;;;;;;4954422;28;20060;-36
2022/06/20 09:04:59;;;;;;;5.20;2.15;;;17.80;92.10;;;;;;4948454;28;20093;-34
2022/06/20 09:07:41;;;;;;;3.05;1.80;;;17.80;91.80;;;;;;4948303;29;20027;-36
2022/06/20 09:10:27;;;;;;;5.70;2.10;;;17.70;91.80;;;;;;4947982;28;20060;-35
2022/06/20 09:13:22;;;;;;;7.43;2.40;;;17.60;91.60;;;;;;4949010;29;20039;-37
2022/06/20 09:16:26;;;;;;;5.53;1.90;;;17.60;91.20;;;;;;4948294;29;20475;-36
2022/06/20 09:19:34;;;;;;;5.43;1.85;;;17.70;90.40;;;;;;4947054;29;20023;-36
2022/06/20 09:22:19;;;;;;;5.53;2.35;;;17.80;90.70;;;;;;4939285;29;20507;-36
2022/06/20 09:25:10;;;;;;;6.43;1.90;;;17.80;90.90;;;;;;4948001;28;20506;-35
2022/06/20 09:28:18;;;;;;;4.32;1.65;;;17.90;91.20;;;;;;4948527;28;20185;-36
2022/06/20 09:31:19;;;;;;;4.57;1.95;;;18.20;91.40;;;;;;4945176;29;20140;-35
2022/06/20 09:33:48;;;;;;;4.80;2.20;;;18.50;91.50;;;;;;4948322;28;20031;-36
2022/06/20 09:36:32;;;;;;;6.78;2.60;;;18.60;91.30;;;;;;4948503;29;20035;-36
2022/06/20 09:39:29;;;;;;;5.10;2.30;;;18.60;91.40;;;;;;4948077;29;20023;-36
2022/06/20 09:42:09;;;;;;;7.78;2.30;;;18.50;91.30;;;;;;4948673;28;20081;-37
2022/06/20 09:45:03;;;;;;;4.65;1.77;;;18.40;90.80;;;;;;4946927;28;20038;-35
2022/06/20 09:47:56;;;;;;;5.32;1.92;;;18.30;91.40;;;;;;4948071;28;20033;-37
2022/06/20 09:50:49;;;;;;;5.70;2.10;;;18.30;91.00;;;;;;4939528;29;20037;-36
2022/06/20 09:53:39;;;;;;;4.05;2.05;;;18.40;90.80;;;;;;4947717;28;20050;-36
2022/06/20 09:56:19;;;;;;;6.40;2.65;;;18.40;91.00;;;;;;4948198;28;20554;-35
2022/06/20 09:59:01;;;;;;;4.82;2.08;;;18.40;90.00;;;;;;4951838;28;20415;-36
2022/06/20 10:02:04;;;;;;;3.72;1.80;;;18.40;90.40;;;;;;4947771;28;20032;-36
2022/06/20 10:04:36;;;;;;;6.57;2.00;;;18.50;90.70;;;;;;4947025;28;20031;-36
2022/06/20 10:07:07;;;;;;;4.38;1.70;;;18.60;89.40;;;;;;4927645;29;20031;-35
2022/06/20 10:10:04;;;;;;;3.88;1.55;;;18.50;88.80;;;;;;4942245;29;20034;-36
2022/06/20 10:12:43;;;;;;;3.33;1.67;;;18.50;89.50;;;;;;4927991;28;20499;-34
2022/06/20 10:15:35;;;;;;;8.20;1.95;;;18.50;89.10;;;;;;4946047;29;20081;-36
2022/06/20 10:18:12;;;;;;;4.45;1.80;;;18.50;87.80;;;;;;4948267;29;20035;-36
2022/06/20 10:21:23;;;;;;;3.85;1.40;;;18.60;87.10;;;;;;4946860;28;20020;-34
2022/06/20 10:24:15;;;;;;;2.75;1.52;;;18.70;85.50;;;;;;4947433;28;20027;-36
2022/06/20 10:26:52;;;;;;;3.88;1.90;;;18.80;86.20;;;;;;4938640;29;20467;-36
2022/06/20 10:29:38;;;;;;;4.90;1.67;;;18.80;85.80;;;;;;4947805;29;20031;-37
2022/06/20 10:32:20;;;;;;;4.22;1.50;;;18.80;85.60;;;;;;4947911;29;20130;-36
2022/06/20 10:34:48;;;;;;;3.20;1.30;;;18.80;86.10;;;;;;4946652;28;20404;-37
2022/06/20 10:37:34;;;;;;;2.65;1.13;;;18.80;85.70;;;;;;4951017;28;20118;-36
2022/06/20 10:40:16;;;;;;;2.20;1.13;;;18.80;84.50;;;;;;4951332;28;20058;-35
2022/06/20 10:42:54;;;;;;;3.35;1.35;;;18.80;85.60;;;;;;4951317;28;20114;-36
2022/06/20 10:45:58;;;;;;;4.05;1.50;;;18.90;85.30;;;;;;4950629;29;20105;-37
2022/06/20 10:48:35;;;;;;;2.45;1.10;;;19.00;85.30;;;;;;4908687;29;20096;-36
2022/06/20 10:51:30;;;;;;;3.25;1.17;;;19.10;84.90;;;;;;4947260;28;20046;-37
2022/06/20 10:54:38;;;;;;;1.95;0.93;;;19.30;84.90;;;;;;4959619;28;20035;-37
2022/06/20 10:57:32;;;;;;;3.17;1.25;;;19.50;83.70;;;;;;4960416;28;20061;-36
2022/06/20 11:00:07;;;;;;;3.90;1.40;;;19.60;83.30;;;;;;4951121;28;20035;-37
2022/06/20 11:02:38;;;;;;;3.10;1.20;;;19.60;80.10;;;;;;4939243;29;20023;-35
2022/06/20 11:05:12;;;;;;;3.60;1.17;;;19.60;79.00;;;;;;4951156;29;20023;-37
2022/06/20 11:08:05;;;;;;;3.45;1.30;;;19.50;79.60;;;;;;4950915;28;20154;-37
2022/06/20 11:10:55;;;;;;;2.70;1.30;;;19.50;79.80;;;;;;4949285;29;20046;-36
2022/06/20 11:13:26;;;;;;;2.55;1.20;;;19.70;79.30;;;;;;4950175;29;20023;-36
2022/06/20 11:16:45;;;;;;;3.25;1.25;;;19.80;79.30;;;;;;4950080;29;20039;-38
2022/06/20 11:19:45;;;;;;;3.03;1.30;;;19.90;78.20;;;;;;4929200;29;20039;-36
2022/06/20 11:22:24;;;;;;;2.08;1.20;;;20.00;78.70;;;;;;4950568;29;20475;-36
2022/06/20 11:25:11;;;;;;;9.88;1.52;;;20.10;78.50;;;;;;4950304;29;20082;-36
2022/06/20 11:28:03;;;;;;;3.53;1.40;;;20.10;78.30;;;;;;4949886;29;20038;-36
2022/06/20 11:30:35;;;;;;;4.45;1.63;;;20.10;78.10;;;;;;4950233;29;20049;-35
2022/06/20 11:36:37;;;;;;;3.30;1.35;;;19.90;79.80;;;;;;4950101;29;20449;-36
2022/06/20 11:39:18;;;;;;;3.83;1.50;;;19.90;80.00;;;;;;4950805;29;20031;-35
2022/06/20 11:42:04;;;;;;;4.95;1.80;;;20.00;80.70;;;;;;4955033;28;20038;-36
2022/06/20 11:45:01;;;;;;;3.92;1.50;;;20.00;79.90;;;;;;4962345;28;20540;-34
2022/06/20 11:47:41;;;;;;;3.47;1.30;;;20.00;80.60;;;;;;4956966;28;20151;-35
2022/06/20 11:50:38;;;;;;;4.40;1.60;;;20.10;78.20;;;;;;4951054;29;20031;-36
2022/06/20 11:53:15;;;;;;;1.85;1.20;;;20.10;79.50;;;;;;4950693;28;20042;-34
2022/06/20 11:56:09;;;;;;;3.50;1.38;;;20.10;79.80;;;;;;4950487;28;20046;-35
2022/06/20 11:59:00;;;;;;;4.00;1.60;;;20.00;80.20;;;;;;4957644;28;20055;-36
2022/06/20 12:01:36;;;;;;;4.80;1.27;;;19.90;80.70;;;;;;4955631;28;20039;-35
2022/06/20 12:04:24;;;;;;;4.35;1.60;;;19.90;81.20;;;;;;4950496;28;20023;-36
2022/06/20 12:07:05;;;;;;;3.83;1.65;;;20.00;78.90;;;;;;4949315;28;20027;-36
2022/06/20 12:09:45;;;;;;;4.18;1.80;;;19.90;79.20;;;;;;4947865;29;20530;-36
2022/06/20 12:12:36;;;;;;;5.47;1.42;;;19.90;79.30;;;;;;4949233;29;20023;-37
2022/06/20 12:15:20;;;;;;;3.75;1.45;;;19.90;79.40;;;;;;4940571;29;20427;-39
2022/06/20 12:17:45;;;;;;;2.78;1.10;;;19.90;79.00;;;;;;4949966;29;20089;-35
2022/06/20 12:23:36;;;;;;;1.85;1.10;;;19.90;80.00;;;;;;4940178;28;20034;-36
2022/06/20 12:26:29;;;;;;;4.32;1.50;;;19.90;79.00;;;;;;4949244;28;20464;-35
2022/06/20 12:28:56;;;;;;;4.25;1.58;;;19.80;79.80;;;;;;4949588;28;20109;-36
2022/06/20 12:31:25;;;;;;;5.43;1.83;;;19.80;79.90;;;;;;4949382;29;20501;-35
2022/06/20 12:34:00;;;;;;;2.55;1.10;;;19.70;80.30;;;;;;4948217;28;20445;-35
2022/06/20 12:36:36;;;;;;;3.28;1.23;;;19.70;80.70;;;;;;4949523;29;20487;-36
2022/06/20 12:39:23;;;;;;;3.53;1.58;;;19.90;80.70;;;;;;4949345;28;20094;-37
2022/06/20 12:41:56;;;;;;;4.13;1.60;;;20.00;80.80;;;;;;4948925;29;20384;-36
2022/06/20 12:44:52;;;;;;;3.83;1.50;;;20.00;81.00;;;;;;4949067;28;20057;-36
2022/06/20 12:48:00;;;;;;;2.22;1.27;;;20.10;79.90;;;;;;4948859;29;20091;-36
2022/06/20 12:51:00;;;;;;;3.28;1.30;;;20.20;79.40;;;;;;4947777;28;20051;-35
2022/06/20 12:53:31;;;;;;;4.05;1.42;;;20.20;79.00;;;;;;4927794;28;20043;-36
2022/06/20 12:56:06;;;;;;;3.83;1.50;;;20.20;79.50;;;;;;4945683;29;20129;-36
2022/06/20 12:59:00;;;;;;;5.13;1.50;;;20.20;79.60;;;;;;4948489;29;20130;-36
2022/06/20 13:01:44;;;;;;;4.63;1.65;;;20.10;80.00;;;;;;4952685;28;20031;-36
2022/06/20 13:04:37;;;;;;;3.08;1.30;;;20.10;80.30;;;;;;4956316;28;20019;-36
2022/06/20 13:07:14;;;;;;;4.05;1.65;;;20.20;80.40;;;;;;4957516;28;20114;-37
2022/06/20 13:10:01;;;;;;;3.47;1.40;;;20.10;80.30;;;;;;4954422;28;20034;-34
2022/06/20 13:12:53;;;;;;;3.90;1.40;;;20.10;80.80;;;;;;4953744;28;20027;-35
2022/06/20 13:15:41;;;;;;;4.40;1.60;;;20.10;81.10;;;;;;4947911;28;20051;-35
2022/06/20 13:18:34;;;;;;;4.45;1.58;;;20.00;81.30;;;;;;4948979;28;20035;-36
2022/06/20 13:21:24;;;;;;;3.65;1.58;;;20.00;81.80;;;;;;4948603;28;20054;-35
2022/06/20 13:23:54;;;;;;;5.60;1.70;;;20.10;82.30;;;;;;4956079;28;20032;-36
2022/06/20 13:26:46;;;;;;;5.07;1.83;;;20.10;82.10;;;;;;4955188;28;20031;-37
2022/06/20 13:29:36;;;;;;;3.35;1.60;;;20.20;82.10;;;;;;4962923;28;20045;-37
2022/06/20 13:32:32;;;;;;;3.05;1.38;;;20.30;82.10;;;;;;4947371;29;20031;-35
2022/06/20 13:35:18;;;;;;;5.45;1.38;;;20.30;81.90;;;;;;4947648;29;20524;-37
2022/06/20 13:37:50;;;;;;;2.50;1.30;;;20.40;82.20;;;;;;4949548;28;20035;-36
2022/06/20 13:40:46;;;;;;;3.03;1.48;;;20.30;82.20;;;;;;4948278;28;20019;-36
2022/06/20 13:43:29;;;;;;;6.45;1.55;;;20.30;82.10;;;;;;4939380;29;20031;-36
2022/06/20 13:46:08;;;;;;;3.22;1.45;;;20.20;82.50;;;;;;4948054;28;20507;-38
2022/06/20 13:49:06;;;;;;;2.63;1.50;;;20.10;82.60;;;;;;4947104;29;20035;-36
2022/06/20 13:51:56;;;;;;;4.13;1.83;;;20.10;82.50;;;;;;4946498;29;20364;-36
2022/06/20 13:55:01;;;;;;;5.38;1.70;;;20.10;82.70;;;;;;4948201;29;20486;-35
2022/06/20 13:57:34;;;;;;;2.92;1.60;;;20.20;82.50;;;;;;4946655;28;20050;-37
2022/06/20 14:00:07;;;;;;;3.78;1.60;;;20.20;82.30;;;;;;4948200;28;20117;-36